Observations
| Time | Sensor | AQI | SAQ | Temp °C | Hum % | Pres Pa | CO μg/m³ | H₂S μg/m³ | NO μg/m³ | NO₂ μg/m³ | O₃ μg/m³ | SO₂ μg/m³ | CO₂e PPM | VOC PPM | PM1 μg/m³ | PM2.5 μg/m³ | PM4 μg/m³ | PM10 μg/m³ | TPS µm |
|---|---|---|---|---|---|---|---|---|---|---|---|---|---|---|---|---|---|---|---|
| Wednesday 12 August 2026 | |||||||||||||||||||
| 03:52 | Trim Market St | 2 | 19.3 | 66 | 57,172 | 0.06 | 0 | 1.32 | 12.66 | 62.56 | 0 | 1.43 | 4.25 | 6.22 | |||||
| 03:51 | Trim Patrick St | 2 | 18.6 | 70 | 38,445 | 0.03 | 4.45 | 1.29 | 32.45 | 53.37 | 0 | 5.43 | 9.48 | 10.43 | |||||
| 03:51 | Trim Market St | 2 | 19.3 | 66 | 57,177 | 0.06 | 0 | 1.31 | 13.23 | 60.84 | 0 | 1.43 | 3.26 | 4.92 | |||||
| 03:50 | Trim Patrick St | 2 | 18.6 | 70 | 38,440 | 0.02 | 1.54 | 1.33 | 16.6 | 49.86 | 0 | 6.29 | 10.22 | 11.24 | |||||
| 03:49 | Trim Patrick St | 2 | 18.6 | 70 | 38,433 | 0.02 | 3.01 | 1.33 | 22.06 | 47.87 | 0 | 4.57 | 8.77 | 9.65 | |||||
| 03:49 | Trim Market St | 2 | 19.3 | 66 | 57,182 | 0.06 | 0 | 1.3 | 12.47 | 59 | 0 | 1.43 | 4.25 | 6.22 | |||||
| 03:48 | Trim Patrick St | 2 | 18.6 | 70 | 38,423 | 0.02 | 2.33 | 1.37 | 20.3 | 47.51 | 0 | 4.57 | 8.79 | 9.67 | |||||
| 03:48 | Trim Market St | 2 | 19.2 | 66 | 57,186 | 0.07 | 0 | 1.3 | 12.03 | 68.88 | 0 | 2.14 | 4.74 | 7.53 | |||||
| 03:47 | Trim Patrick St | 2 | 18.6 | 68 | 38,411 | 0.02 | 2.43 | 1.34 | 11.54 | 42.9 | 0 | 6.29 | 10.32 | 11.36 | |||||
| 03:47 | Trim Market St | 2 | 19.3 | 66 | 57,197 | 0.06 | 0 | 1.28 | 12.35 | 64.93 | 0 | 1.43 | 3.75 | 5.57 | |||||
| 03:46 | Trim Patrick St | 2 | 18.6 | 68 | 38,394 | 0.02 | 5.19 | 1.36 | 24.6 | 57.47 | 0 | 5.43 | 9.61 | 10.57 | |||||
| 03:46 | Trim Market St | 2 | 19.2 | 66 | 57,205 | 0.06 | 0 | 1.3 | 15.84 | 61.21 | 0 | 2.14 | 4.25 | 6.22 | |||||
| 03:45 | Trim Market St | 2 | 19.3 | 66 | 57,216 | 0.05 | 0 | 1.26 | 16.85 | 59.49 | 0 | 2.14 | 4.25 | 6.22 | |||||
| 03:44 | Trim Patrick St | 2 | 18.6 | 70 | 38,343 | 0.01 | 4.11 | 1.31 | 22.5 | 46.11 | 0 | 6.29 | 10.94 | 12.04 | |||||
| 03:44 | Trim Market St | 2 | 19.3 | 66 | 57,223 | 0.06 | 0 | 1.26 | 13.36 | 66.12 | 0 | 2.85 | 3.76 | 6.88 | |||||
| 03:43 | Trim Patrick St | 2 | 18.6 | 70 | 38,304 | 0.02 | 4.37 | 1.29 | 27.87 | 55.63 | 0 | 4.57 | 10.23 | 11.25 | |||||
| 03:43 | Trim Market St | 2 | 19.3 | 66 | 57,231 | 0.05 | 0 | 1.26 | 12.02 | 70.67 | 0 | 2.14 | 3.27 | 5.57 | |||||
| 03:42 | Trim Patrick St | 2 | 18.6 | 68 | 38,252 | 0.02 | 1.49 | 1.34 | 13.21 | 43.06 | 0 | 5.43 | 9.59 | 10.55 | |||||
| 03:41 | Trim Patrick St | 2 | 18.6 | 70 | 38,182 | 0.02 | 4.56 | 1.33 | 30.6 | 49.38 | 0 | 6.29 | 9.49 | 10.43 | |||||
| 03:41 | Trim Market St | 2 | 19.3 | 65 | 57,241 | 0.06 | 0 | 1.26 | 12.66 | 58.7 | 0 | 1.43 | 3.27 | 4.91 | |||||